OMD785 PANC-PADU
Flight info
| Callsign | OMD785 |
|---|---|
| Flight time | N/A |
| Altitude | 40000 |
| Route | ENA J115 CUDDA MORDI ROFZU |
| Aircraft | B736/M-SDE2E3FGHIRWXY/LB1 |
Departure
| Time | 2026-04-30 13:54 |
|---|---|
| Airport | Ted Stevens Anchorage International Airport (PANC) |
Arrival
| Time | N/A |
|---|---|
| Airport | Tom Madsen (Dutch Harbor) Airport (PADU) |
| Time | Latitude | Longitude | Altitude | Speed | Heading |
|---|---|---|---|---|---|
| 2026-04-30 13:23 | 61.17261 | -149.96365 | 96 ft | 0 kts | 319° |
| 2026-04-30 13:44 | 61.17266 | -149.96362 | 98 ft | 1 kts | 7° |
| 2026-04-30 13:45 | 61.17235 | -149.96279 | 97 ft | 9 kts | 161° |
| 2026-04-30 13:45 | 61.17161 | -149.96264 | 96 ft | 12 kts | 181° |
| 2026-04-30 13:45 | 61.17125 | -149.96323 | 96 ft | 6 kts | 267° |
| 2026-04-30 13:46 | 61.17127 | -149.96443 | 96 ft | 10 kts | 271° |
| 2026-04-30 13:46 | 61.17127 | -149.96625 | 96 ft | 15 kts | 269° |
| 2026-04-30 13:46 | 61.17127 | -149.96842 | 96 ft | 14 kts | 270° |
| 2026-04-30 13:46 | 61.17127 | -149.96986 | 97 ft | 1 kts | 270° |
| 2026-04-30 13:47 | 61.17127 | -149.97103 | 99 ft | 19 kts | 269° |
| 2026-04-30 13:47 | 61.17145 | -149.97260 | 99 ft | 4 kts | 327° |
| 2026-04-30 13:47 | 61.17177 | -149.97275 | 99 ft | 0 kts | 355° |
| 2026-04-30 13:47 | 61.17179 | -149.97277 | 99 ft | 4 kts | 342° |
| 2026-04-30 13:48 | 61.17172 | -149.97417 | 102 ft | 17 kts | 231° |
| 2026-04-30 13:48 | 61.17117 | -149.97644 | 108 ft | 16 kts | 271° |
| 2026-04-30 13:48 | 61.17117 | -149.97876 | 112 ft | 16 kts | 270° |
| 2026-04-30 13:48 | 61.17117 | -149.98103 | 114 ft | 16 kts | 270° |
| 2026-04-30 13:49 | 61.17117 | -149.98362 | 114 ft | 20 kts | 270° |
| 2026-04-30 13:49 | 61.17116 | -149.98689 | 115 ft | 24 kts | 270° |
| 2026-04-30 13:49 | 61.17124 | -149.99046 | 115 ft | 23 kts | 272° |
| 2026-04-30 13:49 | 61.17125 | -149.99373 | 120 ft | 22 kts | 270° |
| 2026-04-30 13:50 | 61.17125 | -149.99605 | 125 ft | 0 kts | 270° |
| 2026-04-30 13:52 | 61.17124 | -149.99699 | 127 ft | 10 kts | 270° |
| 2026-04-30 13:52 | 61.17162 | -149.99875 | 129 ft | 13 kts | 328° |
| 2026-04-30 13:53 | 61.17182 | -149.99890 | 129 ft | 0 kts | 346° |
| 2026-04-30 13:53 | 61.17198 | -149.99900 | 127 ft | 20 kts | 343° |
| 2026-04-30 13:53 | 61.17632 | -150.00143 | 122 ft | 106 kts | 345° |
| 2026-04-30 13:53 | 61.18555 | -150.00672 | 220 ft | 158 kts | 345° |
| 2026-04-30 13:54 | 61.19697 | -150.01202 | 767 ft | 177 kts | 348° |
| 2026-04-30 13:54 | 61.20941 | -150.01757 | 1549 ft | 186 kts | 348° |
| 2026-04-30 13:54 | 61.22155 | -150.02688 | 2484 ft | 201 kts | 326° |
| 2026-04-30 13:54 | 61.23126 | -150.04889 | 3513 ft | 215 kts | 294° |
| 2026-04-30 13:55 | 61.23389 | -150.07932 | 4652 ft | 213 kts | 263° |
| 2026-04-30 13:55 | 61.23363 | -150.11136 | 5722 ft | 237 kts | 261° |
| 2026-04-30 13:55 | 61.22661 | -150.14352 | 6547 ft | 255 kts | 222° |
| 2026-04-30 13:55 | 61.21181 | -150.16310 | 7947 ft | 253 kts | 204° |
| 2026-04-30 13:56 | 61.19589 | -150.17895 | 9414 ft | 255 kts | 204° |
| 2026-04-30 13:56 | 61.17999 | -150.19626 | 10654 ft | 265 kts | 208° |
| 2026-04-30 13:56 | 61.16329 | -150.21697 | 11193 ft | 297 kts | 212° |
| 2026-04-30 13:56 | 61.14520 | -150.24232 | 11492 ft | 330 kts | 215° |
| 2026-04-30 13:57 | 61.12646 | -150.27132 | 12405 ft | 340 kts | 218° |
| 2026-04-30 13:57 | 61.10798 | -150.30195 | 13644 ft | 341 kts | 220° |
| 2026-04-30 13:57 | 61.08976 | -150.33353 | 14727 ft | 343 kts | 221° |
| 2026-04-30 13:57 | 61.07157 | -150.36600 | 15645 ft | 348 kts | 222° |
| 2026-04-30 13:58 | 61.05326 | -150.39924 | 16559 ft | 353 kts | 223° |
| 2026-04-30 13:58 | 61.01607 | -150.46749 | 18400 ft | 362 kts | 223° |
| 2026-04-30 13:58 | 60.99712 | -150.50236 | 19166 ft | 367 kts | 223° |
| 2026-04-30 13:59 | 60.97795 | -150.53762 | 19936 ft | 371 kts | 223° |
| 2026-04-30 13:59 | 60.95859 | -150.57320 | 20708 ft | 376 kts | 223° |
| 2026-04-30 13:59 | 60.93898 | -150.60919 | 21470 ft | 380 kts | 223° |
| 2026-04-30 13:59 | 60.91911 | -150.64557 | 22220 ft | 384 kts | 223° |
| 2026-04-30 14:00 | 60.89906 | -150.68223 | 22945 ft | 388 kts | 223° |
| 2026-04-30 14:00 | 60.85820 | -150.75671 | 24225 ft | 397 kts | 223° |
| 2026-04-30 14:00 | 60.83769 | -150.79400 | 24809 ft | 401 kts | 223° |
| 2026-04-30 14:01 | 60.81646 | -150.83253 | 25404 ft | 404 kts | 223° |
| 2026-04-30 14:01 | 60.79530 | -150.87086 | 25960 ft | 408 kts | 223° |
| 2026-04-30 14:01 | 60.77388 | -150.90958 | 26503 ft | 412 kts | 222° |
| 2026-04-30 14:01 | 60.75230 | -150.94853 | 27032 ft | 416 kts | 222° |
| 2026-04-30 14:02 | 60.73077 | -150.98731 | 27518 ft | 420 kts | 222° |
| 2026-04-30 14:02 | 60.70877 | -151.02687 | 28008 ft | 424 kts | 222° |
| 2026-04-30 14:02 | 60.68656 | -151.06676 | 28474 ft | 427 kts | 222° |
| 2026-04-30 14:02 | 60.66415 | -151.10692 | 28911 ft | 430 kts | 221° |
| 2026-04-30 14:03 | 60.64162 | -151.14720 | 29365 ft | 432 kts | 221° |
| 2026-04-30 14:03 | 60.62003 | -151.18956 | 29909 ft | 431 kts | 227° |
| 2026-04-30 14:03 | 60.60132 | -151.23695 | 30451 ft | 430 kts | 235° |
| 2026-04-30 14:03 | 60.58560 | -151.28859 | 30956 ft | 429 kts | 238° |
| 2026-04-30 14:04 | 60.57013 | -151.34057 | 31391 ft | 430 kts | 238° |
| 2026-04-30 14:04 | 60.55463 | -151.39249 | 31827 ft | 430 kts | 237° |
| 2026-04-30 14:04 | 60.53905 | -151.44431 | 32292 ft | 429 kts | 237° |
| 2026-04-30 14:04 | 60.52344 | -151.49585 | 32744 ft | 429 kts | 237° |
| 2026-04-30 14:05 | 60.50776 | -151.54739 | 33149 ft | 429 kts | 237° |
| 2026-04-30 14:05 | 60.49202 | -151.59886 | 33558 ft | 429 kts | 237° |
| 2026-04-30 14:05 | 60.47626 | -151.65025 | 33969 ft | 429 kts | 237° |
| 2026-04-30 14:05 | 60.46046 | -151.70166 | 34314 ft | 429 kts | 237° |
| 2026-04-30 14:06 | 60.44464 | -151.75300 | 34611 ft | 430 kts | 237° |
| 2026-04-30 14:06 | 60.41283 | -151.85590 | 35207 ft | 432 kts | 237° |
| 2026-04-30 14:07 | 60.38090 | -151.95877 | 35826 ft | 432 kts | 236° |
| 2026-04-30 14:07 | 60.36487 | -152.01023 | 36129 ft | 433 kts | 236° |
| 2026-04-30 14:07 | 60.34882 | -152.06165 | 36434 ft | 433 kts | 236° |
| 2026-04-30 14:08 | 60.31663 | -152.16444 | 37049 ft | 434 kts | 236° |
| 2026-04-30 14:08 | 60.30046 | -152.21590 | 37329 ft | 434 kts | 236° |
| 2026-04-30 14:08 | 60.26809 | -152.31860 | 37959 ft | 434 kts | 236° |
| 2026-04-30 14:09 | 60.25188 | -152.36993 | 38249 ft | 435 kts | 236° |
| 2026-04-30 14:09 | 60.23561 | -152.42127 | 38550 ft | 435 kts | 236° |
| 2026-04-30 14:09 | 60.20342 | -152.52335 | 39034 ft | 435 kts | 237° |
| 2026-04-30 14:10 | 60.18739 | -152.57505 | 39220 ft | 436 kts | 237° |
| 2026-04-30 14:10 | 60.17136 | -152.62684 | 39403 ft | 437 kts | 237° |
| 2026-04-30 14:10 | 60.15529 | -152.67870 | 39621 ft | 437 kts | 237° |
| 2026-04-30 14:10 | 60.13920 | -152.73048 | 39830 ft | 438 kts | 237° |
| 2026-04-30 14:11 | 60.12303 | -152.78235 | 39992 ft | 439 kts | 237° |
| 2026-04-30 14:11 | 60.09048 | -152.88625 | 39998 ft | 440 kts | 237° |
| 2026-04-30 14:12 | 60.05791 | -152.98964 | 40005 ft | 438 kts | 237° |
| 2026-04-30 14:12 | 60.02535 | -153.09256 | 39997 ft | 438 kts | 236° |
| 2026-04-30 14:13 | 59.99267 | -153.19538 | 39982 ft | 438 kts | 236° |
| 2026-04-30 14:13 | 59.95990 | -153.29804 | 39981 ft | 438 kts | 236° |
| 2026-04-30 14:14 | 59.92706 | -153.40050 | 39967 ft | 438 kts | 236° |
| 2026-04-30 14:14 | 59.89969 | -153.48551 | 39963 ft | 438 kts | 236° |
| 2026-04-30 14:15 | 59.86666 | -153.58771 | 39952 ft | 439 kts | 236° |
| 2026-04-30 14:15 | 59.83352 | -153.68979 | 39946 ft | 440 kts | 236° |
| 2026-04-30 14:16 | 59.80030 | -153.79169 | 39918 ft | 439 kts | 236° |
| 2026-04-30 14:16 | 59.76702 | -153.89335 | 39920 ft | 439 kts | 236° |
| 2026-04-30 14:17 | 59.73368 | -153.99471 | 39902 ft | 439 kts | 235° |
| 2026-04-30 14:17 | 59.70028 | -154.09586 | 39891 ft | 438 kts | 235° |
| 2026-04-30 14:18 | 59.66678 | -154.19685 | 39888 ft | 439 kts | 235° |
| 2026-04-30 14:18 | 59.61641 | -154.34788 | 39877 ft | 439 kts | 235° |
| 2026-04-30 14:19 | 59.56579 | -154.49880 | 39863 ft | 440 kts | 235° |
| 2026-04-30 14:20 | 59.53161 | -154.59910 | 39859 ft | 441 kts | 234° |
| 2026-04-30 14:20 | 59.47856 | -154.74627 | 39845 ft | 442 kts | 233° |
| 2026-04-30 14:21 | 59.44287 | -154.84450 | 39836 ft | 442 kts | 233° |
| 2026-04-30 14:22 | 59.38932 | -154.99197 | 39815 ft | 442 kts | 233° |
| 2026-04-30 14:22 | 59.33554 | -155.13940 | 39801 ft | 443 kts | 233° |
| 2026-04-30 14:23 | 59.26348 | -155.33552 | 39793 ft | 444 kts | 233° |
| 2026-04-30 14:24 | 59.20914 | -155.48230 | 39785 ft | 445 kts | 233° |
| 2026-04-30 14:25 | 59.13634 | -155.67756 | 39783 ft | 445 kts | 233° |
| 2026-04-30 14:26 | 59.08152 | -155.82352 | 39785 ft | 445 kts | 232° |
| 2026-04-30 14:27 | 59.02654 | -155.96903 | 39773 ft | 445 kts | 232° |
| 2026-04-30 14:27 | 58.98978 | -156.06580 | 39765 ft | 445 kts | 232° |
| 2026-04-30 14:28 | 58.93478 | -156.20988 | 39773 ft | 445 kts | 232° |
| 2026-04-30 14:28 | 58.89784 | -156.30616 | 39752 ft | 445 kts | 232° |
| 2026-04-30 14:29 | 58.82381 | -156.49794 | 39727 ft | 445 kts | 232° |
| 2026-04-30 14:31 | 58.73084 | -156.73665 | 39706 ft | 445 kts | 231° |
| 2026-04-30 14:31 | 58.66808 | -156.86773 | 39726 ft | 445 kts | 225° |
| 2026-04-30 14:32 | 58.60293 | -156.99457 | 39728 ft | 444 kts | 225° |
| 2026-04-30 14:33 | 58.55980 | -157.07926 | 39719 ft | 443 kts | 225° |
| 2026-04-30 14:33 | 58.49535 | -157.20587 | 39708 ft | 442 kts | 225° |
| 2026-04-30 14:34 | 58.45269 | -157.28931 | 39699 ft | 442 kts | 225° |
| 2026-04-30 14:34 | 58.40973 | -157.37301 | 39682 ft | 441 kts | 225° |
| 2026-04-30 14:35 | 58.34515 | -157.49822 | 39677 ft | 441 kts | 225° |
| 2026-04-30 14:36 | 58.30208 | -157.58134 | 39676 ft | 441 kts | 224° |
| 2026-04-30 14:36 | 58.25893 | -157.66432 | 39674 ft | 441 kts | 224° |
| 2026-04-30 14:37 | 58.21572 | -157.74711 | 39664 ft | 441 kts | 224° |
| 2026-04-30 14:37 | 58.17245 | -157.82972 | 39655 ft | 441 kts | 224° |
| 2026-04-30 14:38 | 58.12913 | -157.91211 | 39639 ft | 442 kts | 224° |
| 2026-04-30 14:38 | 58.08571 | -157.99439 | 39614 ft | 442 kts | 224° |
| 2026-04-30 14:39 | 58.04227 | -158.07642 | 39599 ft | 442 kts | 224° |
| 2026-04-30 14:39 | 57.99874 | -158.15837 | 39590 ft | 442 kts | 224° |
| 2026-04-30 14:40 | 57.93322 | -158.28096 | 39578 ft | 443 kts | 224° |
| 2026-04-30 14:40 | 57.88937 | -158.36250 | 39569 ft | 444 kts | 224° |
| 2026-04-30 14:41 | 57.84570 | -158.44345 | 39564 ft | 444 kts | 224° |
| 2026-04-30 14:41 | 57.80140 | -158.52533 | 39554 ft | 444 kts | 224° |
| 2026-04-30 14:42 | 57.75732 | -158.60651 | 39544 ft | 445 kts | 224° |
| 2026-04-30 14:42 | 57.71315 | -158.68755 | 39536 ft | 445 kts | 224° |
| 2026-04-30 14:43 | 57.66924 | -158.76785 | 39531 ft | 445 kts | 224° |
| 2026-04-30 14:43 | 57.62496 | -158.84851 | 39528 ft | 445 kts | 224° |
| 2026-04-30 14:44 | 57.58065 | -158.92894 | 39519 ft | 445 kts | 224° |
| 2026-04-30 14:44 | 57.53625 | -159.00925 | 39514 ft | 445 kts | 223° |
| 2026-04-30 14:45 | 57.49178 | -159.08939 | 39509 ft | 445 kts | 223° |
| 2026-04-30 14:45 | 57.44730 | -159.16928 | 39500 ft | 445 kts | 223° |
| 2026-04-30 14:46 | 57.40265 | -159.24918 | 39496 ft | 446 kts | 223° |
| 2026-04-30 14:46 | 57.35797 | -159.32885 | 39487 ft | 446 kts | 223° |
| 2026-04-30 14:47 | 57.31318 | -159.40843 | 39488 ft | 446 kts | 223° |
| 2026-04-30 14:47 | 57.26831 | -159.48789 | 39477 ft | 447 kts | 223° |
| 2026-04-30 14:48 | 57.22340 | -159.56711 | 39474 ft | 447 kts | 223° |
| 2026-04-30 14:48 | 57.17842 | -159.64618 | 39467 ft | 447 kts | 223° |
| 2026-04-30 14:49 | 57.13338 | -159.72509 | 39460 ft | 447 kts | 223° |
| 2026-04-30 14:49 | 57.08826 | -159.80384 | 39456 ft | 447 kts | 223° |
| 2026-04-30 14:50 | 57.02051 | -159.92161 | 39450 ft | 447 kts | 223° |
| 2026-04-30 14:51 | 56.95253 | -160.03913 | 39444 ft | 448 kts | 223° |
| 2026-04-30 14:52 | 56.88446 | -160.15623 | 39440 ft | 448 kts | 223° |
| 2026-04-30 14:52 | 56.81648 | -160.27258 | 39434 ft | 448 kts | 223° |
| 2026-04-30 14:53 | 56.77668 | -160.35989 | 39436 ft | 449 kts | 235° |
| 2026-04-30 14:53 | 56.75937 | -160.40729 | 39429 ft | 449 kts | 236° |
| 2026-04-30 14:54 | 56.69040 | -160.59721 | 39421 ft | 450 kts | 235° |
| 2026-04-30 14:55 | 56.63804 | -160.73860 | 39416 ft | 449 kts | 235° |
| 2026-04-30 14:56 | 56.56787 | -160.92628 | 39414 ft | 449 kts | 235° |
| 2026-04-30 14:57 | 56.51507 | -161.06657 | 39411 ft | 449 kts | 234° |
| 2026-04-30 14:58 | 56.44448 | -161.25292 | 39397 ft | 449 kts | 234° |
| 2026-04-30 14:58 | 56.39135 | -161.39222 | 39390 ft | 449 kts | 234° |
| 2026-04-30 15:00 | 56.30238 | -161.62373 | 39382 ft | 449 kts | 234° |
| 2026-04-30 15:01 | 56.23110 | -161.80765 | 39376 ft | 450 kts | 234° |
| 2026-04-30 15:01 | 56.17724 | -161.94568 | 39369 ft | 450 kts | 234° |
| 2026-04-30 15:02 | 56.14125 | -162.03750 | 39365 ft | 450 kts | 234° |
| 2026-04-30 15:03 | 56.05092 | -162.26643 | 39355 ft | 450 kts | 233° |
| 2026-04-30 15:04 | 55.96001 | -162.49466 | 39344 ft | 451 kts | 233° |
| 2026-04-30 15:06 | 55.86854 | -162.72219 | 39337 ft | 452 kts | 233° |
| 2026-04-30 15:07 | 55.80117 | -162.88843 | 39332 ft | 452 kts | 233° |
| 2026-04-30 15:08 | 55.72727 | -163.06948 | 39331 ft | 453 kts | 233° |
| 2026-04-30 15:09 | 55.63443 | -163.29507 | 39319 ft | 453 kts | 233° |
| 2026-04-30 15:10 | 55.55982 | -163.47487 | 39318 ft | 453 kts | 233° |
| 2026-04-30 15:11 | 55.44736 | -163.74341 | 39310 ft | 454 kts | 233° |
| 2026-04-30 15:13 | 55.35312 | -163.96620 | 39303 ft | 454 kts | 233° |
| 2026-04-30 15:14 | 55.22062 | -164.27607 | 39299 ft | 454 kts | 232° |
| 2026-04-30 15:17 | 55.04874 | -164.67234 | 39289 ft | 454 kts | 232° |
| 2026-04-30 15:19 | 54.89762 | -165.01566 | 39270 ft | 421 kts | 232° |